Time;durP1;ratioP1;P1;durP2;ratioP2;P2;SDS_P1;SDS_P2;PMS_P1;PMS_P2;Temp;Humidity;BMP_temperature;BMP_pressure;BME280_temperature;BME280_humidity;BME280_pressure;Samples;Min_cycle;Max_cycle;Signal;HPM_P1;HPM_P2
2024/01/04 00:00:25;;;;;;;5.57;1.10;;;6.10;99.90;;;;;;4997009;28;20093;-69
2024/01/04 00:02:51;;;;;;;7.25;1.40;;;6.20;99.90;;;;;;4987641;28;20038;-69
2024/01/04 00:05:18;;;;;;;3.83;1.20;;;6.10;99.90;;;;;;5001149;28;20045;-69
2024/01/04 00:07:44;;;;;;;8.18;1.30;;;6.20;99.90;;;;;;5003114;28;20489;-69
2024/01/04 00:10:10;;;;;;;2.38;0.95;;;6.10;99.90;;;;;;5003004;28;20084;-69
2024/01/04 00:12:36;;;;;;;3.13;1.15;;;6.20;99.90;;;;;;5002644;28;20160;-69
2024/01/04 00:15:05;;;;;;;6.35;1.30;;;6.10;99.90;;;;;;4992726;28;20184;-69
2024/01/04 00:17:32;;;;;;;3.80;1.35;;;6.10;99.90;;;;;;5026750;28;20042;-69
2024/01/04 00:19:57;;;;;;;3.20;1.08;;;6.20;99.90;;;;;;5022734;28;20120;-69
2024/01/04 00:22:23;;;;;;;6.65;1.50;;;6.20;99.90;;;;;;5016845;28;20126;-69
2024/01/04 00:24:49;;;;;;;6.20;1.33;;;6.20;99.90;;;;;;5015120;28;20478;-68
2024/01/04 00:27:15;;;;;;;7.75;1.67;;;6.10;99.90;;;;;;5019658;28;20141;-69
2024/01/04 00:29:45;;;;;;;3.63;1.20;;;6.10;99.90;;;;;;4999260;28;20117;-69
2024/01/04 00:32:10;;;;;;;2.90;1.08;;;6.00;99.90;;;;;;5001236;28;20060;-69
2024/01/04 00:34:36;;;;;;;6.18;1.55;;;6.10;99.90;;;;;;5016618;28;20556;-69
2024/01/04 00:37:06;;;;;;;6.28;0.98;;;6.10;99.90;;;;;;4995633;28;20054;-69
2024/01/04 00:39:31;;;;;;;3.53;0.95;;;6.00;99.90;;;;;;4999946;28;20500;-69
2024/01/04 00:42:02;;;;;;;6.90;1.08;;;6.00;99.90;;;;;;5000471;28;20050;-69
2024/01/04 00:44:28;;;;;;;3.15;0.80;;;6.10;99.90;;;;;;4985176;28;20050;-69
2024/01/04 00:46:54;;;;;;;2.17;0.90;;;6.00;99.90;;;;;;4992438;28;20152;-69
2024/01/04 00:49:20;;;;;;;0.80;0.73;;;6.00;99.90;;;;;;4997977;28;20569;-69
2024/01/04 00:51:46;;;;;;;7.53;1.10;;;6.10;99.90;;;;;;4987157;28;20046;-69
2024/01/04 00:54:13;;;;;;;3.88;1.00;;;6.00;99.90;;;;;;4989218;28;20042;-69
2024/01/04 00:56:38;;;;;;;4.00;0.98;;;6.00;99.90;;;;;;4984582;28;20050;-69
2024/01/04 00:59:04;;;;;;;5.78;1.10;;;6.00;99.90;;;;;;5002345;28;20088;-69
2024/01/04 01:01:32;;;;;;;3.53;0.90;;;6.00;99.90;;;;;;4998738;28;20056;-69
2024/01/04 01:03:59;;;;;;;5.72;0.93;;;6.00;99.90;;;;;;5004564;28;20077;-69
2024/01/04 01:06:25;;;;;;;4.97;1.00;;;6.00;99.90;;;;;;4998603;28;20042;-69
2024/01/04 01:08:50;;;;;;;3.80;0.80;;;6.00;99.90;;;;;;5013019;28;20046;-68
2024/01/04 01:11:16;;;;;;;2.85;1.00;;;6.00;99.90;;;;;;4992174;28;20042;-69
2024/01/04 01:13:42;;;;;;;6.00;1.10;;;6.00;99.90;;;;;;4998439;28;20084;-69
2024/01/04 01:16:08;;;;;;;2.80;0.80;;;6.00;99.90;;;;;;5037514;28;21147;-69
2024/01/04 01:18:35;;;;;;;2.97;1.08;;;5.90;99.90;;;;;;5009349;28;20045;-69
2024/01/04 01:21:02;;;;;;;7.00;1.38;;;5.80;99.90;;;;;;5001454;28;20054;-69
2024/01/04 01:23:28;;;;;;;4.95;0.90;;;5.80;99.90;;;;;;5007260;28;20046;-69
2024/01/04 01:25:53;;;;;;;3.90;1.20;;;5.70;99.90;;;;;;4990772;28;20041;-69
2024/01/04 01:28:19;;;;;;;3.20;1.42;;;5.70;99.90;;;;;;4988435;28;20072;-69
2024/01/04 01:30:45;;;;;;;4.10;1.20;;;5.70;99.90;;;;;;5001210;28;20042;-69
2024/01/04 01:33:11;;;;;;;5.07;1.30;;;5.70;99.90;;;;;;5001785;28;20038;-69
2024/01/04 01:35:37;;;;;;;5.70;1.33;;;5.70;99.90;;;;;;5001473;28;20053;-69
2024/01/04 01:38:02;;;;;;;4.35;1.17;;;5.70;99.90;;;;;;4977718;28;20462;-69
2024/01/04 01:40:28;;;;;;;3.80;1.30;;;5.70;99.90;;;;;;5000741;28;20046;-69
2024/01/04 01:42:54;;;;;;;6.00;1.27;;;5.60;99.90;;;;;;5002131;28;20125;-69
2024/01/04 01:45:20;;;;;;;3.95;1.20;;;5.60;99.90;;;;;;5001527;28;20040;-69
2024/01/04 01:47:47;;;;;;;3.22;0.90;;;5.60;99.90;;;;;;4982258;28;20065;-69
2024/01/04 01:50:15;;;;;;;3.63;1.25;;;5.70;99.90;;;;;;5030427;28;20056;-69
2024/01/04 01:52:41;;;;;;;6.10;0.98;;;5.70;99.90;;;;;;5001701;28;20142;-69
2024/01/04 01:55:11;;;;;;;3.33;0.90;;;5.70;99.90;;;;;;5002043;28;20050;-69
2024/01/04 01:57:38;;;;;;;5.22;1.10;;;5.70;99.90;;;;;;4984815;28;20465;-69
2024/01/04 02:00:04;;;;;;;4.28;0.98;;;5.70;99.90;;;;;;5020052;28;20030;-69
2024/01/04 02:02:31;;;;;;;4.45;1.25;;;5.70;99.90;;;;;;4999806;28;20042;-69
2024/01/04 02:04:57;;;;;;;4.57;0.93;;;5.60;99.90;;;;;;5004177;28;20489;-69
2024/01/04 02:07:23;;;;;;;2.90;0.80;;;5.70;99.90;;;;;;5001723;28;20042;-69
2024/01/04 02:09:49;;;;;;;4.95;1.00;;;5.60;99.90;;;;;;5014494;28;20041;-69
2024/01/04 02:12:15;;;;;;;3.63;0.85;;;5.60;99.90;;;;;;4985344;28;20042;-69
2024/01/04 02:14:41;;;;;;;5.22;1.40;;;5.70;99.90;;;;;;4993641;28;20060;-69
2024/01/04 02:17:07;;;;;;;3.58;1.00;;;5.60;99.90;;;;;;4996243;28;20510;-69
2024/01/04 02:19:33;;;;;;;2.70;1.00;;;5.60;99.90;;;;;;4998715;28;20508;-69
2024/01/04 02:22:00;;;;;;;4.28;0.90;;;5.60;99.90;;;;;;5005334;28;20586;-69
2024/01/04 02:24:26;;;;;;;3.53;0.80;;;5.60;99.90;;;;;;4998134;28;20042;-69
2024/01/04 02:26:52;;;;;;;4.18;1.20;;;5.50;99.90;;;;;;5032697;28;20069;-69
2024/01/04 02:29:18;;;;;;;5.40;1.02;;;5.40;99.90;;;;;;4989256;28;20372;-69
2024/01/04 02:31:45;;;;;;;4.32;1.20;;;5.40;99.90;;;;;;4987375;28;20038;-69
2024/01/04 02:34:11;;;;;;;10.63;1.60;;;5.40;99.90;;;;;;4997790;28;20057;-69
2024/01/04 02:36:37;;;;;;;6.13;1.30;;;5.30;99.90;;;;;;4994843;28;20061;-69
2024/01/04 02:39:02;;;;;;;7.63;1.00;;;5.20;99.90;;;;;;4988318;28;20060;-69
2024/01/04 02:41:28;;;;;;;2.03;1.08;;;5.20;99.90;;;;;;4998189;28;20048;-69
2024/01/04 02:43:54;;;;;;;7.22;1.08;;;5.20;99.90;;;;;;5021652;28;20056;-69
2024/01/04 02:46:20;;;;;;;4.05;0.93;;;5.20;99.90;;;;;;5039831;28;20042;-69
2024/01/04 02:48:45;;;;;;;4.25;0.90;;;5.20;99.90;;;;;;5001365;28;20080;-69
2024/01/04 02:51:11;;;;;;;3.15;0.98;;;5.10;99.90;;;;;;4998567;28;20037;-69
2024/01/04 02:53:37;;;;;;;2.25;0.85;;;5.10;99.90;;;;;;4987331;28;20050;-68
2024/01/04 02:56:04;;;;;;;3.30;1.33;;;5.00;99.90;;;;;;4990173;28;20045;-69
2024/01/04 02:58:30;;;;;;;2.97;1.13;;;5.00;99.90;;;;;;5004624;28;20045;-68
2024/01/04 03:00:56;;;;;;;5.45;0.90;;;5.00;99.90;;;;;;5024474;28;20043;-69
2024/01/04 03:03:21;;;;;;;1.88;0.90;;;5.00;99.90;;;;;;4989257;28;20443;-68
2024/01/04 03:05:47;;;;;;;2.03;0.80;;;4.90;99.90;;;;;;5003593;28;20045;-69
2024/01/04 03:08:14;;;;;;;3.30;0.80;;;4.80;99.90;;;;;;5003054;28;20042;-68
2024/01/04 03:10:40;;;;;;;2.53;0.90;;;4.70;99.90;;;;;;5001257;28;20144;-69
2024/01/04 03:13:06;;;;;;;3.15;0.80;;;4.70;99.90;;;;;;4988814;28;20116;-68
2024/01/04 03:15:32;;;;;;;1.92;0.77;;;4.60;99.90;;;;;;4985381;28;20046;-68
2024/01/04 03:17:58;;;;;;;2.10;0.70;;;4.60;99.90;;;;;;4998237;28;20048;-69
2024/01/04 03:20:23;;;;;;;5.25;1.25;;;4.70;99.90;;;;;;4989668;28;20037;-69
2024/01/04 03:22:49;;;;;;;3.00;0.77;;;4.60;99.90;;;;;;4986207;28;20046;-69
2024/01/04 03:25:15;;;;;;;5.35;0.90;;;4.60;99.90;;;;;;4979962;28;20203;-69
2024/01/04 03:27:42;;;;;;;3.85;1.02;;;4.50;99.90;;;;;;5001419;28;20513;-68
2024/01/04 03:30:08;;;;;;;4.00;0.88;;;4.50;99.90;;;;;;4998650;28;20046;-68
2024/01/04 03:32:34;;;;;;;5.55;0.75;;;4.50;99.90;;;;;;5004833;28;20406;-69
2024/01/04 03:35:00;;;;;;;4.25;0.90;;;4.40;99.90;;;;;;4995261;28;20041;-69
2024/01/04 03:37:25;;;;;;;2.58;0.80;;;4.40;99.90;;;;;;4983526;28;20481;-69
2024/01/04 03:39:51;;;;;;;2.65;0.80;;;4.30;99.90;;;;;;4998199;28;20049;-68
2024/01/04 03:42:17;;;;;;;2.67;1.15;;;4.40;99.90;;;;;;4997886;28;20041;-69
2024/01/04 03:44:43;;;;;;;2.90;0.93;;;4.50;99.90;;;;;;5021421;28;20053;-68
2024/01/04 03:47:09;;;;;;;3.78;1.17;;;4.50;99.90;;;;;;5001957;28;20559;-69
2024/01/04 03:49:35;;;;;;;2.65;0.70;;;4.50;99.90;;;;;;5024103;28;20141;-68
2024/01/04 03:52:04;;;;;;;8.35;1.05;;;4.50;99.90;;;;;;5005226;28;20533;-68
2024/01/04 03:54:30;;;;;;;3.03;1.00;;;4.50;99.90;;;;;;4997429;28;20049;-68
2024/01/04 03:56:56;;;;;;;3.20;1.08;;;4.50;99.90;;;;;;5015808;28;20047;-68
2024/01/04 03:59:22;;;;;;;3.80;0.90;;;4.50;99.90;;;;;;4987383;28;20050;-68
2024/01/04 04:01:48;;;;;;;4.10;1.00;;;4.40;99.90;;;;;;4991879;28;20034;-69
2024/01/04 04:04:14;;;;;;;7.72;1.20;;;4.40;99.90;;;;;;5026683;28;20464;-68
2024/01/04 04:06:40;;;;;;;5.35;1.10;;;4.30;99.90;;;;;;5001669;28;20042;-69
2024/01/04 04:09:07;;;;;;;3.80;1.10;;;4.30;99.90;;;;;;4999254;28;20472;-69
2024/01/04 04:11:33;;;;;;;4.15;1.13;;;4.30;99.90;;;;;;5003911;28;20049;-69
2024/01/04 04:14:00;;;;;;;3.10;0.98;;;4.30;99.90;;;;;;4990053;28;20136;-68
2024/01/04 04:16:26;;;;;;;3.28;1.30;;;4.20;99.90;;;;;;4997343;28;20048;-68
2024/01/04 04:18:52;;;;;;;3.05;0.95;;;4.30;99.90;;;;;;4995053;28;21498;-69
2024/01/04 04:21:22;;;;;;;3.97;1.00;;;4.30;99.90;;;;;;4999876;28;20053;-69
2024/01/04 04:23:51;;;;;;;2.35;1.13;;;4.20;99.90;;;;;;5006438;28;20050;-68
2024/01/04 04:26:21;;;;;;;3.03;1.02;;;4.20;99.90;;;;;;5000292;28;20597;-68
2024/01/04 04:28:51;;;;;;;1.88;1.05;;;4.20;99.90;;;;;;5032332;28;20050;-69
2024/01/04 04:31:18;;;;;;;2.72;0.73;;;4.10;99.90;;;;;;5000002;28;20310;-68
2024/01/04 04:33:45;;;;;;;4.38;1.10;;;4.10;99.90;;;;;;5006837;28;20037;-69
2024/01/04 04:36:11;;;;;;;3.00;0.80;;;4.00;99.90;;;;;;5003847;28;20057;-69
2024/01/04 04:38:37;;;;;;;3.05;0.80;;;3.90;99.90;;;;;;4977726;28;20073;-68
2024/01/04 04:41:04;;;;;;;2.45;1.00;;;4.00;99.90;;;;;;4999395;28;20050;-69
2024/01/04 04:43:31;;;;;;;1.63;0.88;;;3.90;99.90;;;;;;5005242;28;20049;-68
2024/01/04 04:45:57;;;;;;;3.03;1.13;;;3.90;99.90;;;;;;5002227;28;20046;-69
2024/01/04 04:48:23;;;;;;;2.40;0.90;;;3.90;99.90;;;;;;4984733;28;20078;-68
2024/01/04 04:50:50;;;;;;;5.68;1.02;;;4.00;99.90;;;;;;5001493;28;20463;-69
2024/01/04 04:53:16;;;;;;;2.63;1.20;;;4.10;99.90;;;;;;5010230;28;20118;-69
2024/01/04 04:55:42;;;;;;;3.80;1.30;;;4.10;99.90;;;;;;4988473;28;20125;-68
2024/01/04 04:58:08;;;;;;;4.15;1.00;;;4.10;99.90;;;;;;4997555;28;20457;-68
2024/01/04 05:00:34;;;;;;;2.30;1.17;;;4.20;99.90;;;;;;5006941;28;20071;-68
2024/01/04 05:03:00;;;;;;;2.22;0.90;;;4.30;99.90;;;;;;4998494;28;20060;-68
2024/01/04 05:05:25;;;;;;;3.15;1.10;;;4.20;99.90;;;;;;4998822;28;20145;-68
2024/01/04 05:07:51;;;;;;;4.05;0.98;;;4.20;99.90;;;;;;5003516;28;20038;-68
2024/01/04 05:10:17;;;;;;;3.80;1.10;;;4.20;99.90;;;;;;5005209;28;20060;-68
2024/01/04 05:12:43;;;;;;;2.45;0.95;;;4.10;99.90;;;;;;5005881;28;20092;-69
2024/01/04 05:15:09;;;;;;;3.65;0.95;;;4.00;99.90;;;;;;5018056;28;20058;-68
2024/01/04 05:17:34;;;;;;;2.95;1.25;;;4.00;99.90;;;;;;4999103;28;20065;-68
2024/01/04 05:20:00;;;;;;;5.18;0.98;;;4.10;99.90;;;;;;4991176;28;20046;-68
2024/01/04 05:22:26;;;;;;;3.95;0.93;;;4.00;99.90;;;;;;4994065;28;20073;-68
2024/01/04 05:24:52;;;;;;;3.92;1.42;;;3.90;99.90;;;;;;5005557;28;20038;-68
2024/01/04 05:27:17;;;;;;;4.50;1.20;;;3.90;99.90;;;;;;4997363;28;20745;-68
2024/01/04 05:29:43;;;;;;;4.50;1.38;;;3.90;99.90;;;;;;5003876;28;20344;-68
2024/01/04 05:32:09;;;;;;;3.83;1.15;;;3.90;99.90;;;;;;4989374;28;20062;-68
2024/01/04 05:34:36;;;;;;;3.53;0.98;;;3.80;99.90;;;;;;5015852;28;20073;-68
2024/01/04 05:37:02;;;;;;;2.60;1.00;;;3.70;99.90;;;;;;4999311;28;20424;-68
2024/01/04 05:39:28;;;;;;;5.90;1.27;;;3.70;99.90;;;;;;4983059;28;20042;-68
2024/01/04 05:41:54;;;;;;;3.72;1.27;;;3.70;99.90;;;;;;4999541;28;20387;-68
2024/01/04 05:44:19;;;;;;;3.83;1.10;;;3.60;99.90;;;;;;4994173;28;20060;-68
2024/01/04 05:46:45;;;;;;;3.90;1.02;;;3.70;99.90;;;;;;5001962;28;20048;-68
2024/01/04 05:49:11;;;;;;;4.00;1.20;;;3.70;99.90;;;;;;5003087;28;20046;-68
2024/01/04 05:51:37;;;;;;;2.30;1.02;;;3.70;99.90;;;;;;4987966;28;20124;-69
2024/01/04 05:54:03;;;;;;;3.25;1.00;;;3.60;99.90;;;;;;5003756;28;20327;-68
2024/01/04 05:56:29;;;;;;;3.33;1.08;;;3.60;99.90;;;;;;4995306;28;20044;-69
2024/01/04 05:58:55;;;;;;;1.98;1.05;;;3.70;99.90;;;;;;5013623;28;20042;-68
2024/01/04 06:01:21;;;;;;;5.22;1.23;;;3.70;99.90;;;;;;5034240;28;20049;-68
2024/01/04 06:03:47;;;;;;;2.15;1.20;;;3.60;99.90;;;;;;4999957;28;20515;-68
2024/01/04 06:06:14;;;;;;;4.50;1.27;;;3.60;99.90;;;;;;5002524;28;20034;-68
2024/01/04 06:08:41;;;;;;;5.70;1.35;;;3.60;99.90;;;;;;4998925;28;20045;-68
2024/01/04 06:11:07;;;;;;;3.13;1.05;;;3.60;99.90;;;;;;5018991;28;20116;-68
2024/01/04 06:13:33;;;;;;;2.00;1.02;;;3.60;99.90;;;;;;4996249;28;20046;-68
2024/01/04 06:16:04;;;;;;;2.85;0.88;;;3.60;99.90;;;;;;5021535;28;20049;-68
2024/01/04 06:18:30;;;;;;;4.57;1.25;;;3.50;99.90;;;;;;5026991;28;20037;-68
2024/01/04 06:20:56;;;;;;;1.70;1.02;;;3.40;99.90;;;;;;4985654;28;20433;-68
2024/01/04 06:23:22;;;;;;;2.75;1.00;;;3.40;99.90;;;;;;5008474;28;20129;-68
2024/01/04 06:25:51;;;;;;;4.80;1.17;;;3.40;99.90;;;;;;5002650;28;20100;-68
2024/01/04 06:28:17;;;;;;;3.95;1.63;;;3.30;99.90;;;;;;4994684;28;20041;-68
2024/01/04 06:30:42;;;;;;;4.70;1.08;;;3.40;99.90;;;;;;4995642;28;20089;-69
2024/01/04 06:33:08;;;;;;;3.05;1.20;;;3.30;99.90;;;;;;4989598;28;20045;-68
2024/01/04 06:35:34;;;;;;;3.40;1.23;;;3.30;99.90;;;;;;5002294;28;20046;-68
2024/01/04 06:38:02;;;;;;;4.32;1.40;;;3.30;99.90;;;;;;4999083;28;20054;-68
2024/01/04 06:40:28;;;;;;;4.70;1.25;;;3.30;99.90;;;;;;4992664;28;20425;-68
2024/01/04 06:42:55;;;;;;;3.08;1.13;;;3.20;99.90;;;;;;4986869;28;20128;-68
2024/01/04 06:45:24;;;;;;;3.58;1.10;;;3.10;99.90;;;;;;5000338;28;20048;-68
2024/01/04 06:47:50;;;;;;;2.75;1.27;;;3.20;99.90;;;;;;5002466;28;20112;-68
2024/01/04 06:50:17;;;;;;;5.63;1.30;;;3.10;99.90;;;;;;5003911;28;20049;-68
2024/01/04 06:52:43;;;;;;;5.50;1.05;;;3.20;99.90;;;;;;5001806;28;20048;-68
2024/01/04 06:55:10;;;;;;;4.68;1.25;;;3.10;99.90;;;;;;4999555;28;20034;-68
2024/01/04 06:57:36;;;;;;;2.85;1.17;;;3.10;99.90;;;;;;5024232;28;20046;-68
2024/01/04 07:00:02;;;;;;;6.78;1.52;;;3.00;99.90;;;;;;4996058;28;20054;-69
2024/01/04 07:02:28;;;;;;;2.67;0.90;;;3.00;99.90;;;;;;5001516;28;20044;-69
2024/01/04 07:04:54;;;;;;;3.05;1.27;;;3.00;99.90;;;;;;4998318;28;20075;-69
2024/01/04 07:07:19;;;;;;;2.05;0.85;;;3.00;99.90;;;;;;4989460;28;20636;-69
2024/01/04 07:09:45;;;;;;;4.40;1.20;;;3.00;99.90;;;;;;4993911;28;20048;-69
2024/01/04 07:12:11;;;;;;;5.28;1.40;;;3.00;99.90;;;;;;4994063;28;20095;-69
2024/01/04 07:14:39;;;;;;;4.97;1.30;;;2.90;99.90;;;;;;5008405;28;20076;-69
2024/01/04 07:17:07;;;;;;;3.65;1.40;;;2.90;99.90;;;;;;4989139;28;20112;-69
2024/01/04 07:19:33;;;;;;;4.20;1.58;;;2.90;99.90;;;;;;4994939;28;20072;-69
2024/01/04 07:21:58;;;;;;;3.80;0.88;;;2.90;99.90;;;;;;4993762;28;20514;-69
2024/01/04 07:24:24;;;;;;;5.97;1.73;;;2.80;99.90;;;;;;4983802;28;20077;-69
2024/01/04 07:26:50;;;;;;;3.50;1.30;;;2.90;99.90;;;;;;4993178;28;20625;-69
2024/01/04 07:29:15;;;;;;;2.30;1.05;;;2.80;99.90;;;;;;4983881;28;20121;-69
2024/01/04 07:31:42;;;;;;;2.58;1.10;;;2.80;99.90;;;;;;4996755;28;20460;-69
2024/01/04 07:34:08;;;;;;;3.75;1.30;;;2.80;99.90;;;;;;4997819;28;20511;-69
2024/01/04 07:36:34;;;;;;;3.42;1.10;;;2.90;99.90;;;;;;4997329;28;20061;-69
2024/01/04 07:39:00;;;;;;;2.38;1.40;;;2.90;99.90;;;;;;5001626;28;20400;-69
2024/01/04 07:41:26;;;;;;;3.75;1.20;;;2.90;99.90;;;;;;4997691;28;20378;-69
2024/01/04 07:43:52;;;;;;;3.90;1.25;;;3.00;99.90;;;;;;4992992;28;20046;-69
2024/01/04 07:46:18;;;;;;;6.40;1.35;;;2.90;99.90;;;;;;4994514;28;20457;-69
2024/01/04 07:48:44;;;;;;;2.75;1.20;;;2.90;99.90;;;;;;4983323;28;20072;-69
2024/01/04 07:51:10;;;;;;;2.95;1.08;;;2.80;99.90;;;;;;4999847;28;20050;-69
2024/01/04 07:53:36;;;;;;;4.20;1.10;;;2.70;99.90;;;;;;4993942;28;20105;-69
2024/01/04 07:56:02;;;;;;;4.35;1.27;;;2.70;99.90;;;;;;5012417;28;20054;-69
2024/01/04 07:58:27;;;;;;;6.28;1.40;;;2.60;99.90;;;;;;4996800;28;20329;-69
2024/01/04 08:00:53;;;;;;;3.33;1.42;;;2.60;99.90;;;;;;5020747;28;20124;-69
2024/01/04 08:03:19;;;;;;;2.60;1.15;;;2.60;99.90;;;;;;4996657;28;20515;-69
2024/01/04 08:05:44;;;;;;;3.72;1.27;;;2.60;99.90;;;;;;4993793;28;20042;-69
2024/01/04 08:08:10;;;;;;;5.55;1.30;;;2.50;99.90;;;;;;4992432;28;20050;-69
2024/01/04 08:10:36;;;;;;;3.53;1.30;;;2.70;99.90;;;;;;5011068;28;20104;-69
2024/01/04 08:13:02;;;;;;;4.43;1.35;;;2.70;99.90;;;;;;4995911;28;20065;-69
2024/01/04 08:15:33;;;;;;;3.45;1.35;;;2.70;99.90;;;;;;4985166;28;20045;-69
2024/01/04 08:18:00;;;;;;;2.83;1.35;;;2.50;99.90;;;;;;4987555;28;20053;-69
2024/01/04 08:20:27;;;;;;;3.67;1.50;;;2.50;99.90;;;;;;5008105;28;20192;-69
2024/01/04 08:22:52;;;;;;;3.55;1.70;;;2.50;99.90;;;;;;4994222;28;20046;-69
2024/01/04 08:25:18;;;;;;;4.47;1.30;;;2.40;99.90;;;;;;5027855;28;20156;-69
2024/01/04 08:27:44;;;;;;;4.50;1.58;;;2.40;99.90;;;;;;4991863;28;20041;-69
2024/01/04 08:30:10;;;;;;;3.30;1.67;;;2.50;99.90;;;;;;5001680;28;20488;-69
2024/01/04 08:32:36;;;;;;;2.60;1.20;;;2.40;99.90;;;;;;4991174;28;20041;-69
2024/01/04 08:35:02;;;;;;;3.92;1.60;;;2.50;99.90;;;;;;5011467;28;20045;-69
2024/01/04 08:37:28;;;;;;;3.67;1.40;;;2.60;99.90;;;;;;4993959;28;20087;-69
2024/01/04 08:39:53;;;;;;;4.03;1.60;;;2.80;99.90;;;;;;5022809;28;20082;-69
2024/01/04 08:42:19;;;;;;;2.95;1.65;;;2.70;99.90;;;;;;4974928;28;20038;-69
2024/01/04 08:44:45;;;;;;;5.47;1.63;;;2.70;99.90;;;;;;4992662;28;20053;-69
2024/01/04 08:47:11;;;;;;;2.30;1.40;;;2.80;99.90;;;;;;4980799;28;20137;-69
2024/01/04 08:49:36;;;;;;;5.60;1.50;;;2.80;99.90;;;;;;4996188;28;20037;-69
2024/01/04 08:52:02;;;;;;;2.92;1.30;;;2.90;99.90;;;;;;5008912;28;20568;-69
2024/01/04 08:54:28;;;;;;;3.45;1.60;;;2.80;99.90;;;;;;5009787;28;20185;-69
2024/01/04 08:56:54;;;;;;;3.22;1.55;;;2.90;99.90;;;;;;4985424;28;20075;-69
2024/01/04 08:59:20;;;;;;;4.57;1.60;;;2.90;99.90;;;;;;5015710;28;20037;-69
2024/01/04 09:01:46;;;;;;;3.42;1.60;;;2.80;99.90;;;;;;5008750;28;20030;-69
2024/01/04 09:04:12;;;;;;;2.97;1.52;;;3.00;99.90;;;;;;5020377;28;20046;-69
2024/01/04 09:06:38;;;;;;;7.53;1.80;;;3.00;99.90;;;;;;5001625;28;20675;-69
2024/01/04 09:09:07;;;;;;;4.93;1.80;;;3.10;99.90;;;;;;4991195;28;20443;-69
2024/01/04 09:11:38;;;;;;;3.05;1.70;;;3.00;99.90;;;;;;4991154;28;20052;-69
2024/01/04 09:14:11;;;;;;;3.13;1.63;;;3.20;99.90;;;;;;4995732;28;20586;-68
2024/01/04 09:16:43;;;;;;;4.15;1.45;;;3.20;99.90;;;;;;5000677;28;20049;-69
2024/01/04 09:19:17;;;;;;;4.88;1.80;;;3.20;99.90;;;;;;4995971;28;20232;-69
2024/01/04 09:21:44;;;;;;;5.05;1.65;;;3.30;99.90;;;;;;5007922;28;20060;-69
2024/01/04 09:24:12;;;;;;;6.47;1.67;;;3.40;99.90;;;;;;4996273;28;20358;-69
2024/01/04 09:26:42;;;;;;;4.82;1.40;;;3.40;99.90;;;;;;5004810;28;20107;-69
2024/01/04 09:29:09;;;;;;;3.25;1.73;;;3.40;99.90;;;;;;4998159;28;20050;-69
2024/01/04 09:31:35;;;;;;;3.03;1.48;;;3.50;99.90;;;;;;5011181;28;20136;-69
2024/01/04 09:34:01;;;;;;;4.57;2.00;;;3.60;99.90;;;;;;4998433;28;20050;-69
2024/01/04 09:36:27;;;;;;;4.75;1.60;;;3.60;99.90;;;;;;5023414;28;20090;-69
2024/01/04 09:38:52;;;;;;;2.97;1.50;;;3.70;99.90;;;;;;5001683;28;20133;-69
2024/01/04 09:41:29;;;;;;;5.10;1.70;;;3.80;99.90;;;;;;5019710;28;20053;-68
2024/01/04 09:44:06;;;;;;;3.53;1.70;;;3.80;99.90;;;;;;4992897;28;20048;-69
2024/01/04 09:46:38;;;;;;;4.80;1.77;;;3.70;99.90;;;;;;4998341;28;20053;-69
2024/01/04 09:49:06;;;;;;;4.32;1.70;;;3.70;99.90;;;;;;5012267;28;20052;-69
2024/01/04 09:51:39;;;;;;;3.08;1.45;;;3.60;99.90;;;;;;4992806;28;20042;-69
2024/01/04 09:54:08;;;;;;;3.00;1.45;;;3.60;99.90;;;;;;4986122;28;20056;-69
2024/01/04 09:56:46;;;;;;;4.50;1.45;;;3.70;99.90;;;;;;4987267;28;20042;-69
2024/01/04 09:59:12;;;;;;;4.25;1.73;;;3.70;99.90;;;;;;4989599;28;20050;-69
2024/01/04 10:01:39;;;;;;;4.18;1.80;;;3.70;99.90;;;;;;5021905;28;20145;-69
2024/01/04 10:04:06;;;;;;;3.67;1.80;;;3.80;99.90;;;;;;4996525;28;20050;-69
2024/01/04 10:06:37;;;;;;;3.90;1.80;;;3.80;99.90;;;;;;4996173;28;20041;-69
2024/01/04 10:09:21;;;;;;;3.35;1.70;;;3.80;99.90;;;;;;4983395;28;20050;-69
2024/01/04 10:12:11;;;;;;;3.97;1.80;;;3.90;99.90;;;;;;4996413;28;20054;-69
2024/01/04 10:14:37;;;;;;;5.95;1.67;;;3.90;99.90;;;;;;5002124;28;20121;-69
2024/01/04 10:17:03;;;;;;;4.72;1.60;;;3.90;99.90;;;;;;5026219;28;20097;-68
2024/01/04 10:19:31;;;;;;;4.47;2.17;;;4.00;99.90;;;;;;4997712;28;20350;-69
2024/01/04 10:22:08;;;;;;;3.35;1.70;;;4.10;99.90;;;;;;4999153;28;20150;-69
2024/01/04 10:24:37;;;;;;;2.67;1.25;;;4.10;99.90;;;;;;5026965;28;20316;-69
2024/01/04 10:27:04;;;;;;;4.05;1.50;;;4.10;99.90;;;;;;4985506;28;20130;-69
2024/01/04 10:29:31;;;;;;;2.80;1.30;;;4.10;99.90;;;;;;5004517;28;20477;-68
2024/01/04 10:32:02;;;;;;;5.10;1.92;;;4.20;99.90;;;;;;4996672;28;20483;-69
2024/01/04 10:34:28;;;;;;;3.08;1.52;;;4.30;99.90;;;;;;4996684;28;20129;-69
2024/01/04 10:37:06;;;;;;;3.45;1.60;;;4.40;99.90;;;;;;4983522;28;20068;-69
2024/01/04 10:39:32;;;;;;;3.50;1.70;;;4.40;99.90;;;;;;4996727;28;20058;-69
2024/01/04 10:42:01;;;;;;;3.88;1.42;;;4.60;99.90;;;;;;4995209;28;20046;-69
2024/01/04 10:44:33;;;;;;;3.78;1.75;;;4.80;99.90;;;;;;5001855;28;20085;-69
2024/01/04 10:47:01;;;;;;;3.35;1.42;;;4.70;99.90;;;;;;4998414;28;20486;-69
2024/01/04 10:49:27;;;;;;;7.38;1.73;;;4.70;99.90;;;;;;4990321;28;20733;-69
2024/01/04 10:51:57;;;;;;;4.68;1.80;;;4.80;99.90;;;;;;4992256;28;20050;-69
2024/01/04 10:54:34;;;;;;;5.53;2.00;;;4.90;99.90;;;;;;4990345;28;20133;-69
2024/01/04 10:57:01;;;;;;;3.65;1.80;;;4.70;99.90;;;;;;4979418;28;20053;-69
2024/01/04 10:59:29;;;;;;;2.45;1.38;;;5.00;99.90;;;;;;4997697;28;20045;-69
2024/01/04 11:01:58;;;;;;;3.65;1.55;;;5.00;99.90;;;;;;4978063;28;20042;-69
2024/01/04 11:04:25;;;;;;;5.40;1.00;;;5.10;99.90;;;;;;5001577;28;20034;-69
2024/01/04 11:06:52;;;;;;;2.35;1.00;;;5.00;99.90;;;;;;4992613;28;20053;-69
2024/01/04 11:09:19;;;;;;;1.98;1.00;;;5.20;99.90;;;;;;4987936;28;20191;-69
2024/01/04 11:11:46;;;;;;;2.20;0.98;;;5.30;99.90;;;;;;4999370;28;20266;-69
2024/01/04 11:14:12;;;;;;;3.40;1.10;;;5.30;99.90;;;;;;5005157;28;20175;-69
2024/01/04 11:16:58;;;;;;;1.70;0.90;;;5.30;99.90;;;;;;5000052;28;20133;-69
2024/01/04 11:19:32;;;;;;;3.08;1.08;;;5.20;99.90;;;;;;4983082;28;20283;-69
2024/01/04 11:22:11;;;;;;;4.03;0.93;;;5.30;99.90;;;;;;4980500;28;20050;-69
2024/01/04 11:24:43;;;;;;;3.13;0.93;;;5.40;99.90;;;;;;4980935;28;20057;-69
2024/01/04 11:27:13;;;;;;;4.57;1.33;;;5.20;99.90;;;;;;4993373;28;20042;-69
2024/01/04 11:29:41;;;;;;;4.82;1.02;;;5.20;99.90;;;;;;5008236;28;20057;-69
2024/01/04 11:32:07;;;;;;;1.77;0.93;;;5.30;99.90;;;;;;4999473;28;20098;-69
2024/01/04 11:34:33;;;;;;;2.88;0.93;;;5.20;99.90;;;;;;4996992;28;20331;-69
2024/01/04 11:37:22;;;;;;;5.95;1.10;;;5.30;99.90;;;;;;5033393;28;20062;-69
2024/01/04 11:40:14;;;;;;;2.97;0.80;;;5.30;99.90;;;;;;5033042;28;20050;-69
2024/01/04 11:42:41;;;;;;;4.00;1.13;;;5.30;99.90;;;;;;4981046;28;20056;-69
2024/01/04 11:45:15;;;;;;;6.32;1.40;;;5.20;99.90;;;;;;4992403;28;20050;-69
2024/01/04 11:47:43;;;;;;;;;;;5.20;99.90;;;;;;4990614;28;20046;-69
2024/01/04 11:50:24;;;;;;;2.55;1.00;;;5.20;99.90;;;;;;4999366;28;19921;-69
2024/01/04 11:52:51;;;;;;;7.85;1.25;;;5.30;99.90;;;;;;4983739;28;20046;-69
2024/01/04 11:55:28;;;;;;;3.90;1.20;;;5.30;99.90;;;;;;4993271;28;20140;-69
2024/01/04 11:58:05;;;;;;;2.15;1.02;;;5.30;99.90;;;;;;5013606;28;20073;-69
2024/01/04 12:00:35;;;;;;;1.95;0.88;;;5.20;99.90;;;;;;4992789;28;20034;-69
2024/01/04 12:03:15;;;;;;;5.18;1.10;;;5.40;99.90;;;;;;4982504;28;20060;-69
2024/01/04 12:05:54;;;;;;;2.00;0.90;;;5.50;99.90;;;;;;4983651;28;20041;-69
2024/01/04 12:08:30;;;;;;;3.42;1.00;;;5.50;99.90;;;;;;5029222;28;20180;-69
2024/01/04 12:11:06;;;;;;;2.33;1.20;;;5.70;99.90;;;;;;5017698;28;20072;-69
2024/01/04 12:13:33;;;;;;;2.67;1.10;;;5.70;99.90;;;;;;5021455;28;20297;-69
2024/01/04 12:15:59;;;;;;;1.80;0.90;;;5.40;99.90;;;;;;4982807;28;20358;-69
2024/01/04 12:18:25;;;;;;;3.95;1.30;;;5.40;99.90;;;;;;4991551;28;20052;-69
2024/01/04 12:20:50;;;;;;;3.13;1.20;;;5.40;99.90;;;;;;5012707;28;20041;-69
2024/01/04 12:23:17;;;;;;;4.30;1.20;;;5.50;99.90;;;;;;4999543;28;20049;-69
2024/01/04 12:25:43;;;;;;;2.08;1.10;;;5.40;99.90;;;;;;4999289;28;20054;-69
2024/01/04 12:28:10;;;;;;;2.45;1.00;;;5.60;99.90;;;;;;5015551;28;20049;-69
2024/01/04 12:30:40;;;;;;;4.25;0.90;;;5.70;99.90;;;;;;4995093;28;20037;-69
2024/01/04 12:33:08;;;;;;;2.38;0.95;;;5.80;99.90;;;;;;4991664;28;20476;-69
2024/01/04 12:35:35;;;;;;;2.35;1.10;;;6.00;99.90;;;;;;4989333;28;20386;-69
2024/01/04 12:38:07;;;;;;;1.63;1.00;;;6.00;99.90;;;;;;5023076;28;20049;-69
2024/01/04 12:40:40;;;;;;;2.55;1.02;;;5.90;99.90;;;;;;4987286;28;20053;-69
2024/01/04 12:43:13;;;;;;;2.15;0.80;;;5.90;99.90;;;;;;5000310;28;20125;-69
2024/01/04 12:45:39;;;;;;;4.57;1.20;;;6.00;99.90;;;;;;5010680;28;20041;-69
2024/01/04 12:48:07;;;;;;;9.32;1.30;;;6.00;99.90;;;;;;5001529;28;20405;-69
2024/01/04 12:50:37;;;;;;;4.32;0.82;;;6.20;99.90;;;;;;5024056;28;20050;-69
2024/01/04 12:53:06;;;;;;;2.35;0.90;;;6.40;99.90;;;;;;4990024;28;20060;-69
2024/01/04 12:55:35;;;;;;;2.75;0.98;;;6.40;99.90;;;;;;5000804;28;20293;-69
2024/01/04 12:58:02;;;;;;;2.45;0.90;;;6.40;99.90;;;;;;4988890;28;20718;-69